Time;durP1;ratioP1;P1;durP2;ratioP2;P2;SDS_P1;SDS_P2;PMS_P1;PMS_P2;Temp;Humidity;BMP_temperature;BMP_pressure;BME280_temperature;BME280_humidity;BME280_pressure;Samples;Min_cycle;Max_cycle;Signal;HPM_P1;HPM_P2
2023/12/17 00:01:05;;;;;;;18.48;9.48;;;4.60;99.90;;;4.64;91.66;103007.47;4874265;28;24531;-65
2023/12/17 00:03:28;;;;;;;14.70;8.80;;;4.50;99.90;;;4.66;91.73;103008.31;4875663;28;24904;-67
2023/12/17 00:05:50;;;;;;;16.30;8.00;;;4.50;99.90;;;4.68;91.59;103003.97;4875226;28;24427;-65
2023/12/17 00:08:13;;;;;;;13.75;8.45;;;4.50;99.90;;;4.67;91.75;103002.28;4873107;28;21176;-67
2023/12/17 00:10:34;;;;;;;13.23;8.50;;;4.60;99.90;;;4.69;91.90;102997.94;4867211;28;24993;-65
2023/12/17 00:12:56;;;;;;;15.50;9.57;;;4.60;99.90;;;4.71;91.34;102998.78;4875305;28;25209;-66
2023/12/17 00:15:18;;;;;;;19.60;10.13;;;4.60;99.90;;;4.75;91.81;102993.59;4875363;28;24570;-65
2023/12/17 00:17:41;;;;;;;18.85;10.35;;;4.60;99.90;;;4.77;91.91;102989.25;4874367;28;24419;-66
2023/12/17 00:20:05;;;;;;;17.90;9.93;;;4.60;99.90;;;4.77;92.40;102987.50;4870727;28;24446;-66
2023/12/17 00:22:27;;;;;;;20.45;10.10;;;4.60;99.90;;;4.79;92.62;102979.75;4871496;28;24530;-66
2023/12/17 00:24:48;;;;;;;19.40;10.43;;;4.70;99.90;;;4.82;92.44;102980.56;4867649;28;24444;-66
2023/12/17 00:27:14;;;;;;;21.73;10.30;;;4.70;99.90;;;4.84;92.36;102985.72;4870056;28;24430;-66
2023/12/17 00:29:36;;;;;;;15.90;9.77;;;4.70;99.90;;;4.90;92.55;102973.56;4863542;28;24423;-65
2023/12/17 00:31:58;;;;;;;17.33;10.40;;;4.80;99.90;;;4.95;92.22;102971.78;4865425;28;24467;-66
2023/12/17 00:34:22;;;;;;;18.15;10.55;;;4.80;99.90;;;4.98;92.15;102953.66;4865377;28;24522;-66
2023/12/17 00:36:46;;;;;;;16.27;9.98;;;4.80;99.90;;;4.98;91.69;102957.97;4874688;28;25084;-67
2023/12/17 00:39:08;;;;;;;17.48;10.00;;;4.80;99.90;;;5.02;91.63;102970.00;4873280;28;25138;-65
2023/12/17 00:41:31;;;;;;;20.98;10.80;;;4.90;99.90;;;5.01;91.29;102968.25;4868989;28;25022;-64
2023/12/17 00:43:53;;;;;;;19.45;10.90;;;4.90;99.90;;;5.00;91.47;102957.09;4870197;28;20806;-66
2023/12/17 00:46:15;;;;;;;17.20;10.20;;;4.90;99.90;;;5.01;91.12;102957.91;4870037;28;24537;-66
2023/12/17 00:48:37;;;;;;;19.60;10.95;;;4.90;99.90;;;5.02;90.64;102962.22;4872803;28;24550;-65
2023/12/17 00:50:59;;;;;;;19.80;11.45;;;4.90;99.90;;;4.94;90.55;102966.66;4875210;28;24434;-66
2023/12/17 00:53:21;;;;;;;21.52;10.27;;;4.80;99.90;;;4.81;91.14;102957.31;4875773;28;24512;-66
2023/12/17 00:55:43;;;;;;;19.13;10.77;;;4.80;99.90;;;4.66;91.62;102954.00;4869187;28;24456;-67
2023/12/17 00:58:05;;;;;;;18.77;10.90;;;4.70;99.90;;;4.36;93.11;102967.25;4866315;28;24453;-65
2023/12/17 01:00:27;;;;;;;19.13;11.50;;;4.50;99.90;;;4.31;93.64;102968.16;4866103;28;24886;-66
2023/12/17 01:02:49;;;;;;;18.30;11.07;;;4.30;99.90;;;4.31;93.65;102968.16;4873278;28;24454;-66
2023/12/17 01:05:12;;;;;;;21.17;11.10;;;4.30;99.90;;;4.14;94.67;102970.03;4865323;28;24443;-66
2023/12/17 01:07:34;;;;;;;19.67;10.50;;;4.20;99.90;;;4.19;94.32;102969.13;4871236;28;24495;-66
2023/12/17 01:09:56;;;;;;;20.85;10.27;;;4.10;99.90;;;4.24;94.50;102964.78;4865674;28;25034;-66
2023/12/17 01:12:17;;;;;;;16.83;10.07;;;4.10;99.90;;;4.27;93.75;102964.75;4867183;28;24550;-66
2023/12/17 01:14:41;;;;;;;14.50;9.80;;;4.10;99.90;;;4.31;94.53;102966.44;4864459;28;20774;-66
2023/12/17 01:17:06;;;;;;;19.88;10.98;;;4.20;99.90;;;4.35;94.52;102982.75;4874458;28;24505;-66
2023/12/17 01:19:28;;;;;;;18.75;10.13;;;4.20;99.90;;;4.37;94.57;102987.06;4870180;28;20805;-65
2023/12/17 01:21:50;;;;;;;17.08;10.10;;;4.30;99.90;;;4.41;94.62;102988.75;4872712;28;24438;-66
2023/12/17 01:24:12;;;;;;;18.35;9.80;;;4.30;99.90;;;4.45;94.23;102982.66;4874335;28;24443;-66
2023/12/17 01:26:35;;;;;;;15.75;9.40;;;4.30;99.90;;;4.46;93.81;102980.94;4848662;28;24438;-65
2023/12/17 01:28:57;;;;;;;14.77;9.02;;;4.40;99.90;;;4.43;94.20;102992.16;4872107;28;20778;-66
2023/12/17 01:31:19;;;;;;;15.07;9.60;;;4.30;99.90;;;4.47;93.87;102996.44;4875975;28;24509;-66
2023/12/17 01:33:41;;;;;;;16.05;9.00;;;4.40;99.90;;;4.50;93.69;102998.13;4874421;28;24442;-66
2023/12/17 01:36:04;;;;;;;17.40;9.70;;;4.40;99.90;;;4.53;93.82;102995.53;4873283;28;24513;-64
2023/12/17 01:38:26;;;;;;;16.08;9.40;;;4.40;99.90;;;4.53;93.48;102993.81;4874908;28;20795;-65
2023/12/17 01:40:47;;;;;;;15.10;9.20;;;4.40;99.90;;;4.52;92.77;102993.81;4871609;28;25014;-66
2023/12/17 01:43:10;;;;;;;19.02;9.90;;;4.40;99.90;;;4.53;93.15;103004.16;4873112;28;20874;-66
2023/12/17 01:45:31;;;;;;;15.45;9.43;;;4.40;99.90;;;4.53;92.94;102993.81;4871715;28;24501;-66
2023/12/17 01:47:53;;;;;;;18.10;9.52;;;4.40;99.90;;;4.50;92.97;102993.81;4874507;28;21323;-67
2023/12/17 01:50:16;;;;;;;16.45;9.40;;;4.40;99.90;;;4.50;92.87;102988.66;4873715;28;24435;-66
2023/12/17 01:52:39;;;;;;;17.20;10.43;;;4.40;99.90;;;4.50;93.30;102988.66;4869990;28;24539;-66
2023/12/17 01:55:01;;;;;;;17.23;9.75;;;4.40;99.90;;;4.51;93.38;102987.81;4870262;28;20863;-66
2023/12/17 01:57:23;;;;;;;14.40;9.20;;;4.40;99.90;;;4.53;93.41;102986.06;4849544;28;24487;-65
2023/12/17 01:59:46;;;;;;;18.23;9.60;;;4.40;99.90;;;4.53;93.77;102988.66;4867614;28;24550;-66
2023/12/17 02:02:12;;;;;;;16.13;9.82;;;4.40;99.90;;;4.52;93.49;102986.06;4852188;28;20850;-66
2023/12/17 02:04:34;;;;;;;14.48;9.50;;;4.40;99.90;;;4.53;93.79;102983.47;4856158;28;20803;-66
2023/12/17 02:06:56;;;;;;;16.25;9.77;;;4.40;99.90;;;4.52;93.23;102983.47;4868387;28;20892;-67
2023/12/17 02:09:18;;;;;;;18.02;9.50;;;4.40;99.90;;;4.51;93.00;102990.38;4871611;28;24481;-67
2023/12/17 02:11:40;;;;;;;20.55;10.15;;;4.40;99.90;;;4.47;93.01;102990.44;4871398;28;20773;-68
2023/12/17 02:14:02;;;;;;;19.08;9.90;;;4.40;99.90;;;4.43;92.99;102986.16;4866971;28;24431;-66
2023/12/17 02:16:24;;;;;;;16.50;9.63;;;4.30;99.90;;;4.45;93.18;102979.25;4867630;28;21384;-66
2023/12/17 02:18:46;;;;;;;16.80;9.60;;;4.30;99.90;;;4.41;93.75;102988.75;4865206;28;24427;-67
2023/12/17 02:21:08;;;;;;;14.75;8.90;;;4.30;99.90;;;4.32;93.74;102983.66;4863760;28;24453;-66
2023/12/17 02:23:30;;;;;;;18.10;9.60;;;4.30;99.90;;;4.09;95.06;102988.16;4868989;28;24820;-66
2023/12/17 02:25:51;;;;;;;16.40;9.20;;;4.10;99.90;;;4.07;95.12;102983.91;4869276;28;25143;-68
2023/12/17 02:28:13;;;;;;;15.18;9.00;;;4.00;99.90;;;4.04;95.52;102971.84;4870940;28;24443;-66
2023/12/17 02:30:35;;;;;;;15.00;8.87;;;4.00;99.90;;;4.04;95.51;102976.16;4868454;28;24537;-66
2023/12/17 02:32:57;;;;;;;14.02;8.60;;;4.00;99.90;;;4.03;95.91;102969.25;4872801;28;24526;-66
2023/12/17 02:35:21;;;;;;;15.93;8.18;;;4.00;99.90;;;4.01;96.54;102966.69;4865093;28;24570;-66
2023/12/17 02:37:43;;;;;;;14.60;8.00;;;4.00;99.90;;;3.97;96.35;102967.59;4869162;28;20780;-66
2023/12/17 02:40:06;;;;;;;15.13;8.25;;;3.90;99.90;;;3.91;97.00;102957.31;4873034;28;25187;-66
2023/12/17 02:42:29;;;;;;;13.60;8.70;;;3.90;99.90;;;3.86;97.00;102964.22;4870849;28;25030;-66
2023/12/17 02:44:50;;;;;;;14.15;8.65;;;3.80;99.90;;;3.83;97.63;102972.00;4868438;28;24547;-66
2023/12/17 02:47:12;;;;;;;16.00;8.80;;;3.80;99.90;;;3.78;97.71;102971.19;4870542;28;21196;-67
2023/12/17 02:49:35;;;;;;;12.98;8.50;;;3.70;99.90;;;3.81;97.64;102972.00;4864824;28;25046;-66
2023/12/17 02:51:57;;;;;;;12.25;7.93;;;3.70;99.90;;;3.81;97.35;102966.00;4873055;28;21263;-66
2023/12/17 02:54:20;;;;;;;14.52;8.90;;;3.80;99.90;;;3.74;97.34;102972.06;4862609;28;24467;-66
2023/12/17 02:56:42;;;;;;;15.15;9.18;;;3.70;99.90;;;3.72;97.65;102985.00;4869192;28;24469;-65
2023/12/17 02:59:07;;;;;;;14.50;9.00;;;3.70;99.90;;;3.70;97.87;102989.31;4870439;28;24583;-64
2023/12/17 03:01:29;;;;;;;12.73;8.63;;;3.70;99.90;;;3.71;98.25;102993.59;4872672;28;21198;-65
2023/12/17 03:03:50;;;;;;;14.82;8.90;;;3.60;99.90;;;3.70;97.92;102985.88;4871691;28;24443;-65
2023/12/17 03:06:13;;;;;;;15.80;9.10;;;3.60;99.90;;;3.74;98.52;102982.41;4873403;28;24530;-65
2023/12/17 03:08:38;;;;;;;16.33;8.75;;;3.60;99.90;;;3.76;98.43;102985.81;4871344;28;24664;-65
2023/12/17 03:11:00;;;;;;;14.88;9.07;;;3.70;99.90;;;3.78;97.96;102986.69;4872788;28;24916;-64
2023/12/17 03:13:22;;;;;;;13.73;8.30;;;3.70;99.90;;;3.78;97.55;102978.94;4865188;28;24448;-65
2023/12/17 03:15:43;;;;;;;12.80;8.63;;;3.70;99.90;;;3.79;97.24;102968.56;4870836;28;24477;-65
2023/12/17 03:18:05;;;;;;;12.43;8.32;;;3.70;99.90;;;3.78;96.97;102963.44;4872502;28;24434;-65
2023/12/17 03:20:27;;;;;;;13.07;8.30;;;3.70;99.90;;;3.79;97.09;102965.16;4872120;28;24972;-65
2023/12/17 03:22:49;;;;;;;13.32;8.20;;;3.70;99.90;;;3.84;96.98;102959.06;4868607;28;24528;-64
2023/12/17 03:25:11;;;;;;;12.80;8.23;;;3.70;99.90;;;3.88;97.01;102952.16;4862637;28;25000;-65
2023/12/17 03:27:33;;;;;;;12.53;8.13;;;3.80;99.90;;;3.93;97.11;102948.69;4846043;28;24527;-65
2023/12/17 03:29:55;;;;;;;12.07;7.70;;;3.80;99.90;;;3.95;96.20;102946.09;4871888;28;24423;-66
2023/12/17 03:32:17;;;;;;;11.95;7.80;;;3.90;99.90;;;3.92;95.94;102940.94;4872177;28;24840;-66
2023/12/17 03:34:39;;;;;;;12.27;7.80;;;3.90;99.90;;;3.86;96.65;102939.25;4871399;28;24813;-66
2023/12/17 03:37:01;;;;;;;16.25;8.70;;;3.80;99.90;;;3.85;96.84;102940.13;4874015;28;24982;-66
2023/12/17 03:39:23;;;;;;;13.77;8.02;;;3.80;99.90;;;3.81;97.39;102927.28;4871032;28;24786;-66
2023/12/17 03:41:45;;;;;;;12.60;7.65;;;3.80;99.90;;;3.83;97.92;102928.94;4875017;28;24427;-66
2023/12/17 03:44:07;;;;;;;11.85;8.23;;;3.80;99.90;;;3.76;98.08;102929.88;4874792;28;24454;-66
2023/12/17 03:46:29;;;;;;;13.63;7.97;;;3.70;99.90;;;3.70;98.45;102923.91;4871349;28;24505;-65
2023/12/17 03:48:51;;;;;;;14.10;8.20;;;3.70;99.90;;;3.68;98.41;102920.47;4876124;28;24522;-65
2023/12/17 03:51:13;;;;;;;13.88;8.70;;;3.60;99.90;;;3.63;98.59;102924.81;4875760;28;24951;-66
2023/12/17 03:53:35;;;;;;;15.25;8.20;;;3.60;99.90;;;3.65;98.37;102925.66;4865419;28;24478;-66
2023/12/17 03:55:57;;;;;;;11.30;7.90;;;3.60;99.90;;;3.63;98.37;102932.56;4876889;28;24431;-64
2023/12/17 03:58:19;;;;;;;12.63;8.00;;;3.60;99.90;;;3.65;98.11;102923.94;4878902;28;24447;-66
2023/12/17 04:00:41;;;;;;;11.10;7.93;;;3.60;99.90;;;3.63;98.72;102922.22;4876565;28;24513;-66
2023/12/17 04:03:03;;;;;;;12.88;7.88;;;3.60;99.90;;;3.59;98.42;102921.41;4876546;28;21374;-66
2023/12/17 04:05:25;;;;;;;12.57;7.80;;;3.60;99.90;;;3.56;98.86;102921.41;4875696;28;24507;-66
2023/12/17 04:07:47;;;;;;;14.20;8.50;;;3.50;99.90;;;3.58;98.75;102921.38;4876594;28;24426;-66
2023/12/17 04:10:09;;;;;;;13.98;8.45;;;3.50;99.90;;;3.55;98.94;102922.28;4876191;28;24438;-66
2023/12/17 04:12:31;;;;;;;11.88;8.10;;;3.50;99.90;;;3.55;100.00;102924.88;4874208;28;24546;-65
2023/12/17 04:14:53;;;;;;;12.38;8.20;;;3.50;99.90;;;3.59;99.48;102921.41;4876937;28;24466;-65
2023/12/17 04:17:15;;;;;;;12.15;8.00;;;3.50;99.90;;;3.66;99.14;102914.47;4875796;28;24455;-65
2023/12/17 04:19:36;;;;;;;11.80;7.60;;;3.50;99.90;;;3.71;98.45;102921.28;4876210;28;24415;-66
2023/12/17 04:21:59;;;;;;;12.05;7.00;;;3.60;99.90;;;3.65;98.20;102925.66;4874180;28;24443;-65
2023/12/17 04:24:20;;;;;;;10.77;6.93;;;3.60;99.90;;;3.62;97.69;102925.69;4876510;28;24528;-64
2023/12/17 04:26:42;;;;;;;11.05;7.28;;;3.60;99.90;;;3.58;98.23;102932.56;4873060;28;24526;-63
2023/12/17 04:29:05;;;;;;;11.52;7.35;;;3.50;99.90;;;3.43;98.00;102929.25;4851606;28;24489;-66
2023/12/17 04:31:26;;;;;;;11.43;7.20;;;3.40;99.90;;;3.34;98.49;102925.00;4874070;28;24596;-66
2023/12/17 04:33:48;;;;;;;11.80;7.47;;;3.40;99.90;;;3.34;98.88;102929.31;4875032;28;24561;-66
2023/12/17 04:36:11;;;;;;;11.65;7.70;;;3.30;99.90;;;3.35;98.89;102926.72;4875978;28;24950;-64
2023/12/17 04:38:33;;;;;;;11.85;7.57;;;3.30;99.90;;;3.40;99.65;102926.69;4874403;28;24565;-65
2023/12/17 04:40:55;;;;;;;9.65;7.20;;;3.30;99.90;;;3.46;99.46;102929.22;4875665;28;24434;-65
2023/12/17 04:43:17;;;;;;;11.48;7.40;;;3.30;99.90;;;3.52;99.52;102929.19;4866727;28;25035;-65
2023/12/17 04:45:39;;;;;;;12.35;7.07;;;3.40;99.90;;;3.55;99.08;102929.16;4861214;28;24451;-65
2023/12/17 04:48:00;;;;;;;10.13;7.00;;;3.50;99.90;;;3.60;98.91;102922.25;4874709;28;21224;-65
2023/12/17 04:50:22;;;;;;;10.77;7.05;;;3.50;99.90;;;3.61;98.45;102929.13;4872273;28;24603;-65
2023/12/17 04:52:44;;;;;;;11.65;7.30;;;3.50;99.90;;;3.61;97.40;102929.13;4870278;28;20783;-65
2023/12/17 04:55:06;;;;;;;8.90;6.55;;;3.50;99.90;;;3.56;97.21;102921.41;4875238;28;24454;-65
2023/12/17 04:57:28;;;;;;;11.40;7.50;;;3.50;99.90;;;3.47;97.67;102923.22;4872518;28;25062;-65
2023/12/17 04:59:50;;;;;;;10.85;7.18;;;3.40;99.90;;;3.49;97.68;102929.22;4869897;28;24451;-65
2023/12/17 05:02:12;;;;;;;8.93;6.72;;;3.40;99.90;;;3.45;97.51;102930.94;4871956;28;24980;-66
2023/12/17 05:04:34;;;;;;;12.35;6.78;;;3.40;99.90;;;3.44;97.65;102933.53;4875046;28;24531;-65
2023/12/17 05:06:56;;;;;;;10.55;7.00;;;3.40;99.90;;;3.42;97.96;102932.69;4868468;28;24454;-65
2023/12/17 05:09:18;;;;;;;10.20;7.03;;;3.40;99.90;;;3.41;97.56;102933.56;4872329;28;24431;-66
2023/12/17 05:11:40;;;;;;;12.85;6.90;;;3.30;99.90;;;3.39;97.63;102933.56;4873746;28;24424;-65
2023/12/17 05:14:02;;;;;;;11.50;7.20;;;3.30;99.90;;;3.39;97.84;102933.56;4874439;28;24509;-66
2023/12/17 05:16:24;;;;;;;9.77;7.00;;;3.30;99.90;;;3.36;97.36;102927.56;4873155;28;25035;-67
2023/12/17 05:18:46;;;;;;;12.05;7.30;;;3.30;99.90;;;3.33;97.33;102932.72;4874163;28;24485;-65
2023/12/17 05:21:08;;;;;;;9.23;6.90;;;3.30;99.90;;;3.33;97.63;102930.16;4868339;28;24450;-65
2023/12/17 05:23:30;;;;;;;10.63;7.00;;;3.30;99.90;;;3.31;97.21;102919.84;4871033;28;24438;-65
2023/12/17 05:25:52;;;;;;;11.38;7.20;;;3.20;99.90;;;3.29;97.20;102920.72;4874403;28;24493;-65
2023/12/17 05:28:14;;;;;;;11.32;7.20;;;3.20;99.90;;;3.31;98.02;102921.56;4870261;28;24458;-65
2023/12/17 05:30:36;;;;;;;9.87;6.63;;;3.30;99.90;;;3.32;97.97;102919.00;4873968;28;24526;-66
2023/12/17 05:32:58;;;;;;;11.60;7.05;;;3.30;99.90;;;3.32;98.85;102911.25;4871668;28;24427;-66
2023/12/17 05:35:20;;;;;;;11.85;7.10;;;3.20;99.90;;;3.33;98.89;102914.69;4860104;28;24926;-65
2023/12/17 05:37:42;;;;;;;12.03;6.73;;;3.30;99.90;;;3.34;98.76;102914.69;4865263;28;25034;-66
2023/12/17 05:40:06;;;;;;;11.98;6.78;;;3.30;99.90;;;3.33;99.26;102914.69;4873365;28;24427;-65
2023/12/17 05:42:29;;;;;;;12.20;7.00;;;3.30;99.90;;;3.31;99.53;102913.81;4872704;28;24439;-65
2023/12/17 05:44:51;;;;;;;8.48;6.70;;;3.20;99.90;;;3.27;99.62;102917.28;4874016;28;24430;-65
2023/12/17 05:47:13;;;;;;;9.10;6.70;;;3.20;99.90;;;3.27;99.78;102922.44;4867585;28;24534;-63
2023/12/17 05:49:39;;;;;;;11.18;7.57;;;3.20;99.90;;;3.32;99.64;102923.28;4870892;28;25087;-65
2023/12/17 05:52:01;;;;;;;11.55;7.57;;;3.20;99.90;;;3.35;99.90;102916.38;4863506;28;24539;-65
2023/12/17 05:54:23;;;;;;;12.95;8.30;;;3.30;99.90;;;3.41;99.61;102920.66;4873188;28;20840;-65
2023/12/17 05:56:45;;;;;;;13.25;8.65;;;3.30;99.90;;;3.45;99.55;102922.38;4873672;28;24439;-66
2023/12/17 05:59:07;;;;;;;12.15;7.78;;;3.40;99.90;;;3.48;99.28;102915.44;4872054;28;24443;-67
2023/12/17 06:01:29;;;;;;;14.43;8.90;;;3.40;99.90;;;3.50;99.43;102920.59;4869880;28;24558;-65
2023/12/17 06:03:50;;;;;;;12.98;8.20;;;3.40;99.90;;;3.51;99.20;102920.59;4873587;28;21169;-67
2023/12/17 06:06:15;;;;;;;12.33;7.80;;;3.40;99.90;;;3.54;99.03;102919.69;4871613;28;24447;-65
2023/12/17 06:08:37;;;;;;;11.70;7.70;;;3.40;99.90;;;3.53;98.95;102921.44;4872813;28;24493;-65
2023/12/17 06:10:59;;;;;;;12.93;7.47;;;3.40;99.90;;;3.48;98.31;102918.03;4869211;28;24453;-65
2023/12/17 06:13:21;;;;;;;11.05;7.30;;;3.40;99.90;;;3.46;98.38;102922.34;4873776;28;24801;-66
2023/12/17 06:15:43;;;;;;;11.02;7.05;;;3.40;99.90;;;3.39;98.35;102927.53;4873559;28;24415;-65
2023/12/17 06:18:05;;;;;;;16.00;7.50;;;3.40;99.90;;;3.32;98.50;102921.59;4875176;28;24454;-64
2023/12/17 06:20:27;;;;;;;10.50;7.15;;;3.30;99.90;;;3.25;98.80;102916.44;4875418;28;24446;-65
2023/12/17 06:22:52;;;;;;;10.20;6.90;;;3.30;99.90;;;3.24;98.63;102923.31;4866428;28;20794;-65
2023/12/17 06:25:14;;;;;;;10.98;7.03;;;3.20;99.90;;;3.17;99.19;102922.50;4863025;28;24816;-66
2023/12/17 06:27:36;;;;;;;10.52;6.65;;;3.20;99.90;;;3.12;99.10;102918.25;4865212;28;24428;-64
2023/12/17 06:29:59;;;;;;;10.18;6.70;;;3.10;99.90;;;2.96;99.97;102914.88;4872029;28;24805;-63
2023/12/17 06:32:22;;;;;;;10.25;6.90;;;3.00;99.90;;;2.94;100.00;102918.31;4870549;28;24529;-63
2023/12/17 06:34:44;;;;;;;10.17;7.00;;;2.90;99.90;;;2.91;100.00;102908.88;4875448;28;24984;-65
2023/12/17 06:37:06;;;;;;;13.25;8.15;;;2.90;99.90;;;2.89;100.00;102914.91;4872887;28;24535;-64
2023/12/17 06:39:28;;;;;;;13.10;7.70;;;2.90;99.90;;;2.87;100.00;102920.09;4866474;28;24517;-65
2023/12/17 06:41:50;;;;;;;12.83;8.00;;;2.90;99.90;;;2.89;100.00;102920.94;4868952;28;24605;-65
2023/12/17 06:44:12;;;;;;;12.70;7.97;;;2.90;99.90;;;2.88;100.00;102926.94;4861153;28;24423;-65
2023/12/17 06:46:34;;;;;;;11.30;7.70;;;2.90;99.90;;;2.90;100.00;102932.09;4871928;28;24517;-65
2023/12/17 06:48:56;;;;;;;12.45;7.40;;;2.90;99.90;;;2.91;100.00;102928.66;4873329;28;24431;-65
2023/12/17 06:51:18;;;;;;;12.40;7.20;;;2.90;99.90;;;2.83;100.00;102922.69;4872195;28;24485;-65
2023/12/17 06:53:40;;;;;;;11.85;7.40;;;2.80;99.90;;;2.88;100.00;102924.38;4870447;28;24447;-65
2023/12/17 06:56:02;;;;;;;12.68;7.50;;;2.80;99.90;;;2.91;100.00;102928.66;4871707;28;25134;-65
2023/12/17 06:58:24;;;;;;;13.27;7.50;;;2.90;99.90;;;2.93;100.00;102932.94;4872849;28;24815;-66
2023/12/17 07:00:46;;;;;;;11.68;7.50;;;2.90;99.90;;;2.94;100.00;102934.66;4872271;28;24625;-67
2023/12/17 07:03:08;;;;;;;9.90;6.95;;;2.90;99.90;;;2.91;99.97;102929.53;4871656;28;24601;-66
2023/12/17 07:05:30;;;;;;;11.38;7.10;;;2.90;99.90;;;2.89;99.91;102931.25;4874411;28;24531;-66
2023/12/17 07:07:52;;;;;;;11.27;7.05;;;2.90;99.90;;;2.86;100.00;102931.25;4873319;28;24534;-66
2023/12/17 07:10:14;;;;;;;12.30;7.70;;;2.80;99.90;;;2.85;100.00;102923.53;4874101;28;24459;-67
2023/12/17 07:12:36;;;;;;;11.43;7.20;;;2.80;99.90;;;2.82;100.00;102924.38;4864021;28;20775;-66
2023/12/17 07:14:58;;;;;;;11.68;7.80;;;2.80;99.90;;;2.82;99.92;102924.38;4862383;28;24502;-65
2023/12/17 07:17:20;;;;;;;10.75;7.30;;;2.80;99.90;;;2.86;100.00;102931.25;4868624;28;24466;-66
2023/12/17 07:19:42;;;;;;;11.33;7.40;;;2.80;99.90;;;2.88;100.00;102928.66;4867311;28;24828;-66
2023/12/17 07:22:04;;;;;;;14.15;7.97;;;2.80;99.90;;;2.90;100.00;102934.66;4858180;28;24797;-66
2023/12/17 07:24:26;;;;;;;13.73;7.72;;;2.80;99.90;;;2.90;100.00;102930.38;4872711;28;24534;-67
2023/12/17 07:26:51;;;;;;;12.80;8.20;;;2.90;99.90;;;2.96;100.00;102926.94;4876800;28;25043;-66
2023/12/17 07:29:13;;;;;;;15.27;8.20;;;2.90;99.90;;;3.04;100.00;102931.19;4874604;28;24867;-67
2023/12/17 07:31:35;;;;;;;14.05;7.68;;;2.90;99.90;;;3.13;100.00;102919.97;4874227;28;24445;-67
2023/12/17 07:33:57;;;;;;;12.63;7.82;;;3.00;99.90;;;3.23;99.58;102925.91;4874402;28;24911;-66
2023/12/17 07:36:19;;;;;;;12.43;8.00;;;3.10;99.90;;;3.28;99.34;102930.19;4877089;28;24512;-65
2023/12/17 07:38:41;;;;;;;12.10;7.50;;;3.10;99.90;;;3.42;99.54;102927.53;4876614;28;24458;-66
2023/12/17 07:41:03;;;;;;;13.43;8.05;;;3.20;99.90;;;3.54;98.24;102922.28;4877352;28;24514;-66
2023/12/17 07:43:25;;;;;;;11.65;7.30;;;3.40;99.90;;;3.70;97.85;102913.56;4875279;28;24447;-65
2023/12/17 07:45:46;;;;;;;11.48;7.10;;;3.50;99.90;;;3.74;96.37;102910.09;4877651;28;24419;-66
2023/12/17 07:48:08;;;;;;;10.63;7.00;;;3.60;99.90;;;3.74;95.36;102913.53;4875268;28;24546;-66
2023/12/17 07:50:30;;;;;;;10.68;6.88;;;3.60;99.90;;;3.68;95.20;102908.44;4876764;28;24431;-66
2023/12/17 07:52:52;;;;;;;10.13;6.38;;;3.60;99.90;;;3.55;95.03;102916.25;4873901;28;25235;-67
2023/12/17 07:55:14;;;;;;;11.77;7.00;;;3.60;99.90;;;3.47;95.85;102915.47;4881248;28;24547;-67
2023/12/17 07:57:36;;;;;;;20.08;11.05;;;3.40;99.90;;;3.52;95.50;102909.38;4876578;28;24450;-65
2023/12/17 07:59:58;;;;;;;21.60;11.27;;;3.40;99.90;;;3.53;95.48;102912.84;4877041;28;25012;-65
2023/12/17 08:02:20;;;;;;;10.90;6.97;;;3.50;99.90;;;3.57;95.10;102906.78;4867470;28;24497;-66
2023/12/17 08:04:42;;;;;;;11.03;6.83;;;3.50;99.90;;;3.56;95.30;102915.38;4872916;28;24522;-66
2023/12/17 08:07:04;;;;;;;15.70;7.40;;;3.50;99.90;;;3.66;95.21;102917.06;4875409;28;24806;-67
2023/12/17 08:09:26;;;;;;;11.55;7.22;;;3.50;99.90;;;3.80;95.09;102920.38;4874185;28;24583;-65
2023/12/17 08:11:48;;;;;;;12.10;7.45;;;3.60;99.90;;;3.90;94.38;102920.28;4876176;28;24423;-64
2023/12/17 08:14:10;;;;;;;11.07;7.80;;;3.70;99.90;;;4.06;94.95;102918.44;4876374;28;24485;-67
2023/12/17 08:16:32;;;;;;;10.70;7.20;;;3.80;99.90;;;4.38;94.83;102916.41;4877268;28;24518;-66
2023/12/17 08:18:54;;;;;;;11.73;7.23;;;4.10;99.90;;;5.12;93.44;102923.28;4865520;28;24533;-67
2023/12/17 08:21:16;;;;;;;12.55;7.75;;;4.60;99.90;;;6.15;89.10;102927.75;4870268;28;24443;-66
2023/12/17 08:23:38;;;;;;;10.43;7.17;;;5.30;99.90;;;7.11;83.19;102924.16;4859293;28;25069;-66
2023/12/17 08:26:03;;;;;;;10.02;7.20;;;6.20;99.90;;;8.23;77.51;102927.53;4856440;28;20842;-67
2023/12/17 08:28:26;;;;;;;11.68;7.40;;;7.10;99.90;;;9.41;73.07;102924.16;4870401;28;25123;-66
2023/12/17 08:30:48;;;;;;;13.00;7.50;;;8.10;99.90;;;10.40;68.78;102927.84;4874869;28;24976;-67
2023/12/17 08:33:11;;;;;;;10.23;7.28;;;9.00;99.90;;;11.21;65.58;102930.94;4856316;28;24482;-66
2023/12/17 08:35:36;;;;;;;11.40;7.88;;;9.90;99.90;;;11.96;62.52;102930.53;4875992;28;25158;-66
2023/12/17 08:38:03;;;;;;;10.20;7.00;;;10.60;99.90;;;12.46;59.46;102929.22;4867279;28;24521;-65
2023/12/17 08:40:25;;;;;;;11.65;7.60;;;11.30;99.90;;;13.16;57.76;102934.78;4872615;28;24454;-66
2023/12/17 08:42:47;;;;;;;12.57;8.02;;;11.90;99.90;;;13.43;55.40;102932.66;4874649;28;24431;-69
2023/12/17 08:45:09;;;;;;;16.40;10.18;;;12.50;99.90;;;14.15;54.98;102932.59;4867021;28;24440;-65
2023/12/17 08:47:31;;;;;;;13.20;9.00;;;12.80;99.90;;;14.68;52.65;102938.59;4868336;28;25296;-64
2023/12/17 08:49:56;;;;;;;12.90;7.55;;;13.30;99.90;;;14.88;51.59;102927.88;4873271;28;25139;-64
2023/12/17 08:52:18;;;;;;;11.98;7.85;;;13.60;99.90;;;14.86;51.65;102928.88;4864607;28;24455;-67
2023/12/17 08:54:40;;;;;;;13.48;7.78;;;13.80;99.90;;;14.65;51.35;102929.06;4868751;28;24451;-66
2023/12/17 08:57:02;;;;;;;10.15;7.30;;;13.70;99.90;;;14.43;52.96;102941.66;4867865;28;25071;-65
2023/12/17 08:59:24;;;;;;;10.65;7.18;;;13.50;99.90;;;14.18;52.86;102935.06;4866447;28;24894;-68
2023/12/17 09:01:46;;;;;;;14.55;7.47;;;13.30;99.90;;;13.60;53.01;102947.59;4870164;28;24542;-67
2023/12/17 09:04:08;;;;;;;15.50;7.80;;;12.90;99.90;;;11.82;56.92;102937.25;4867304;28;24527;-68
2023/12/17 09:06:30;;;;;;;12.38;6.93;;;12.00;99.90;;;10.45;61.64;102938.13;4870494;28;24444;-67
2023/12/17 09:08:52;;;;;;;10.27;6.65;;;10.60;99.90;;;9.46;65.16;102930.06;4868037;28;24427;-68
2023/12/17 09:11:14;;;;;;;11.57;6.90;;;9.60;99.90;;;8.72;68.45;102926.22;4869349;28;24431;-66
2023/12/17 09:13:36;;;;;;;10.35;6.40;;;8.80;99.90;;;7.96;71.41;102928.22;4870190;28;25397;-65
2023/12/17 09:15:58;;;;;;;9.77;6.63;;;8.10;99.90;;;7.57;73.71;102932.63;4870464;28;24436;-67
2023/12/17 09:18:20;;;;;;;9.68;6.63;;;7.60;99.90;;;7.25;75.68;102923.84;4869825;28;24546;-67
2023/12/17 09:20:43;;;;;;;9.35;6.47;;;7.20;99.90;;;7.09;76.45;102925.94;4872560;28;25000;-66
2023/12/17 09:23:05;;;;;;;10.75;6.68;;;7.00;99.90;;;6.81;77.63;102929.97;4862004;28;24603;-68
2023/12/17 09:25:27;;;;;;;14.18;6.78;;;6.80;99.90;;;6.58;79.39;102934.75;4866936;28;24446;-67
2023/12/17 09:27:51;;;;;;;11.25;6.60;;;6.50;99.90;;;6.47;79.29;102934.97;4873946;28;24573;-66
2023/12/17 09:30:13;;;;;;;11.68;7.13;;;6.40;99.90;;;6.48;80.91;102948.75;4855558;28;25200;-66
2023/12/17 09:32:35;;;;;;;10.90;6.90;;;6.30;99.90;;;6.35;80.76;102942.94;4866242;28;24448;-66
2023/12/17 09:34:57;;;;;;;13.70;7.55;;;6.20;99.90;;;6.31;81.29;102937.84;4870435;28;24427;-66
2023/12/17 09:37:20;;;;;;;12.38;7.43;;;6.10;99.90;;;6.19;81.28;102936.34;4859316;28;24494;-68
2023/12/17 09:39:42;;;;;;;16.52;9.10;;;6.00;99.90;;;6.17;82.62;102938.97;4870852;28;24451;-67
2023/12/17 09:42:04;;;;;;;17.77;8.63;;;6.00;99.90;;;5.92;82.66;102935.06;4867065;28;24433;-65
2023/12/17 09:44:27;;;;;;;14.80;7.78;;;5.90;99.90;;;5.82;83.73;102938.66;4874233;28;24426;-66
2023/12/17 09:46:49;;;;;;;11.77;7.68;;;5.70;99.90;;;5.80;83.62;102936.94;4873186;28;25059;-66
2023/12/17 09:49:11;;;;;;;11.68;7.03;;;5.70;99.90;;;5.87;84.21;102942.06;4857449;28;24891;-66
2023/12/17 09:51:37;;;;;;;13.73;6.90;;;5.70;99.90;;;5.87;83.96;102941.19;4863472;28;24570;-65
2023/12/17 09:53:59;;;;;;;11.43;7.60;;;5.60;99.90;;;5.88;84.71;102933.38;4855906;28;20808;-66
2023/12/17 09:56:21;;;;;;;12.80;7.72;;;5.60;99.90;;;5.80;84.97;102929.19;4866384;28;21130;-66